Flight Track Log - Related Links

Times and Time Zones

All times are in EDT time to prevent confusion due to time zone crossing. See the UAL335 flight status page for this flight to view local times or setup timezone preferences in your user account.

Time Position Orientation Groundspeed Altitude Reporting Facility
EDT Latitude Longitude Course Direction KTS MPH feet Rate Location/Type
Sat 06:08:44 PM 28.0000 -82.5333 354° North 140 161 900  Level Tampa TRACON
Sat 06:09:32 PM 28.0333 -82.5333 360° North 178 205 1,800 2,083 Climbing Tampa TRACON
Sat 06:11:00 PM 28.3521 -82.5667 North  Level FlightAware Approximate
Sat 06:11:08 PM 28.1264 -82.5303 North 251 289 5,900  Level Jacksonville Center
Sat 06:12:00 PM 28.4823 -82.5766 355° North  Level FlightAware Approximate
Sat 06:12:08 PM 28.2078 -82.5369 356° North 257 296 9,400  Level Jacksonville Center
Sat 06:13:00 PM 28.6125 -82.5833 North  Level FlightAware Approximate
Sat 06:13:08 PM 28.2975 -82.5483 354° North 286 329 11,800  Level Jacksonville Center
Sat 06:14:00 PM 28.7393 -82.5924 354° North  Level FlightAware Approximate
Sat 06:14:08 PM 28.4083 -82.5622 354° North 339 390 14,200  Level Jacksonville Center
Sat 06:15:08 PM 28.5253 -82.5736 355° North 392 451 17,700 2,850 Climbing Jacksonville Center
Sat 06:16:08 PM 28.6461 -82.5875 354° North 417 480 19,900 2,150 Climbing Jacksonville Center
Sat 06:17:08 PM 28.7611 -82.6014 354° North 440 506 22,000 2,200 Climbing Jacksonville Center
Sat 06:18:08 PM 28.8989 -82.6222 352° North 468 539 24,300 2,400 Climbing Jacksonville Center
Sat 06:19:08 PM 29.0367 -82.6383 354° North 491 565 26,800 2,550 Climbing Jacksonville Center
Sat 06:20:08 PM 29.1639 -82.6572 353° North 484 557 29,400 1,600 Climbing Jacksonville Center
Sat 06:21:08 PM 29.2914 -82.6736 354° North 465 535 30,000 500 Climbing Jacksonville Center
Sat 06:22:08 PM 29.4272 -82.6922 353° North 465 535 30,400 650 Climbing Jacksonville Center
Sat 06:23:08 PM 29.5692 -82.6944 359° North 485 558 31,300 900 Climbing Jacksonville Center
Sat 06:24:08 PM 29.7111 -82.6964 359° North 497 572 32,200 800 Climbing Jacksonville Center
Sat 06:25:08 PM 29.8572 -82.6939 North 504 580 32,900 1,000 Climbing Jacksonville Center
Sat 06:26:08 PM 30.0011 -82.6936 360° North 515 593 34,200 1,000 Climbing Jacksonville Center
Sat 06:27:08 PM 30.1411 -82.6861 North 510 587 34,900 400 Climbing Jacksonville Center
Sat 06:28:08 PM 30.2789 -82.6858 360° North 510 587 35,000 50 Climbing Jacksonville Center
Sat 06:29:08 PM 30.4189 -82.6831 North 500 575 35,000  Level Jacksonville Center
Sat 06:30:08 PM 30.5586 -82.6586 North 500 575 35,000  Level Jacksonville Center
Sat 06:31:08 PM 30.6964 -82.5978 21° North 505 581 35,000  Level Jacksonville Center
Sat 06:32:08 PM 30.8319 -82.5319 23° Northeast 516 594 35,000  Level Jacksonville Center
Sat 06:33:08 PM 30.9694 -82.4636 23° Northeast 529 609 35,000  Level Jacksonville Center
Sat 06:34:08 PM 31.1069 -82.3975 22° Northeast 529 609 35,000  Level Jacksonville Center
Sat 06:35:08 PM 31.2425 -82.3336 22° Northeast 529 609 35,000  Level Jacksonville Center
Sat 06:36:08 PM 31.3944 -82.2597 23° Northeast 529 609 35,000  Level Jacksonville Center
Sat 06:37:08 PM 31.5319 -82.1881 24° Northeast 529 609 35,000  Level Jacksonville Center
Sat 06:38:08 PM 31.6528 -82.1286 23° Northeast 527 606 35,000  Level Jacksonville Center
Sat 06:39:08 PM 31.8089 -82.0517 23° Northeast 527 606 35,000  Level Jacksonville Center
Sat 06:40:08 PM 31.9442 -81.9867 22° Northeast 535 616 35,000  Level Jacksonville Center
Sat 06:41:08 PM 32.0711 -81.9242 23° Northeast 535 616 35,000  Level Jacksonville Center
Sat 06:42:08 PM 32.2250 -81.8514 22° Northeast 536 617 35,000  Level Jacksonville Center
Sat 06:43:08 PM 32.3622 -81.7883 21° North 531 611 35,000  Level Jacksonville Center
Sat 06:44:08 PM 32.4869 -81.7253 23° Northeast 531 611 35,000  Level Jacksonville Center
Sat 06:45:08 PM 32.6406 -81.6517 22° Northeast 536 617 35,000  Level Jacksonville Center
Sat 06:46:08 PM 32.7672 -81.5906 22° Northeast 536 617 35,000  Level Jacksonville Center
Sat 06:47:08 PM 32.9044 -81.5244 22° Northeast 531 611 35,000  Level Jacksonville Center
Sat 06:48:08 PM 33.0392 -81.4381 28° Northeast 531 611 35,000  Level Jacksonville Center
Sat 06:49:08 PM 33.1653 -81.3292 36° Northeast 542 624 35,000  Level Jacksonville Center
Sat 06:50:08 PM 33.2892 -81.2278 34° Northeast 547 629 35,000  Level Jacksonville Center
Sat 06:51:08 PM 33.4128 -81.1208 36° Northeast 547 629 35,000  Level Jacksonville Center
Sat 06:52:08 PM 33.5386 -81.0136 35° Northeast 552 635 35,000  Level Jacksonville Center
Sat 06:53:08 PM 33.6644 -80.9086 35° Northeast 552 635 35,000  Level Jacksonville Center
Sat 06:54:08 PM 33.7878 -80.8036 35° Northeast 552 635 35,000  Level Jacksonville Center
Sat 06:55:08 PM 33.9133 -80.6981 35° Northeast 552 635 35,000  Level Jacksonville Center
Sat 06:56:08 PM 34.0386 -80.5869 36° Northeast 557 641 35,000  Level Jacksonville Center
Sat 06:57:08 PM 34.1761 -80.4703 35° Northeast 557 641 35,000  Level Jacksonville Center
Sat 06:58:08 PM 34.3033 -80.3614 35° Northeast 557 641 35,000  Level Jacksonville Center
Sat 06:59:08 PM 34.4286 -80.2569 35° Northeast 557 641 35,000  Level Jacksonville Center
Sat 07:01:27 PM 34.7169 -79.9908 37° Northeast 568 654 35,000  Level Washington Center
Sat 07:02:27 PM 34.8461 -79.8814 35° Northeast 563 648 35,000  Level Washington Center
Sat 07:03:27 PM 34.9731 -79.7717 35° Northeast 563 648 35,000  Level Washington Center
Sat 07:04:27 PM 35.1019 -79.6589 36° Northeast 563 648 35,000  Level Washington Center
Sat 07:05:27 PM 35.2328 -79.5536 33° Northeast 563 648 35,000  Level Washington Center
Sat 07:06:27 PM 35.3653 -79.4583 30° Northeast 556 640 35,000  Level Washington Center
Sat 07:07:27 PM 35.5022 -79.3578 31° Northeast 562 647 35,000  Level Washington Center
Sat 07:08:27 PM 35.6325 -79.2617 31° Northeast 562 647 35,000  Level Washington Center
Sat 07:09:27 PM 35.7519 -79.1725 31° Northeast 562 647 35,000  Level Washington Center
Sat 07:10:27 PM 35.8883 -79.0736 30° Northeast 562 647 35,000  Level Washington Center
Sat 07:11:27 PM 36.0247 -78.9744 30° Northeast 567 652 35,000  Level Washington Center
Sat 07:12:27 PM 36.1592 -78.8722 32° Northeast 572 658 35,000  Level Washington Center
Sat 07:13:27 PM 36.2953 -78.7747 30° Northeast 566 651 35,000  Level Washington Center
Sat 07:14:27 PM 36.4317 -78.6719 31° Northeast 571 657 35,000 -350 Level Washington Center
Sat 07:15:27 PM 36.5697 -78.5661 32° Northeast 571 657 34,300 -500 Descending Washington Center
Sat 07:16:27 PM 36.7208 -78.4500 32° Northeast 571 657 34,000 -150 Descending Washington Center
Sat 07:17:27 PM 36.8608 -78.3461 31° Northeast 571 657 34,000  Level Washington Center
Sat 07:18:27 PM 36.9883 -78.2442 33° Northeast 578 665 34,000  Level Washington Center
Sat 07:19:27 PM 37.1392 -78.1269 32° Northeast 588 677 34,000  Level Washington Center
Sat 07:20:27 PM 37.2811 -78.0219 30° Northeast 588 677 34,000  Level Washington Center
Sat 07:21:27 PM 37.4208 -77.9139 32° Northeast 588 677 34,000  Level Washington Center
Sat 07:22:27 PM 37.5606 -77.8003 33° Northeast 593 682 34,000  Level Washington Center
Sat 07:23:27 PM 37.6942 -77.6783 36° Northeast 598 688 34,000  Level Washington Center
Sat 07:24:27 PM 37.8297 -77.5583 35° Northeast 598 688 34,000  Level Washington Center
Sat 07:25:27 PM 37.9653 -77.4328 36° Northeast 598 688 34,000  Level Washington Center
Sat 07:26:27 PM 38.0983 -77.3147 35° Northeast 593 682 34,000  Level Washington Center
Sat 07:27:27 PM 38.2314 -77.1883 37° Northeast 593 682 34,000 -100 Level Washington Center
Sat 07:28:27 PM 38.3644 -77.0639 36° Northeast 593 682 33,800 -650 Descending Washington Center
Sat 07:29:27 PM 38.5014 -76.9367 36° Northeast 599 689 32,700 -900 Descending Washington Center
Sat 07:30:27 PM 38.6342 -76.8117 36° Northeast 599 689 32,000 -350 Descending Washington Center
Sat 07:31:27 PM 38.7561 -76.6831 39° Northeast 614 707 32,000  Level Washington Center
Sat 07:32:27 PM 38.8806 -76.5408 42° Northeast 614 707 32,000 -650 Level Washington Center
Sat 07:33:27 PM 39.0067 -76.3956 42° Northeast 604 695 30,700 -1,500 Descending Washington Center
Sat 07:34:27 PM 39.1242 -76.2578 42° Northeast 593 682 29,000 -1,750 Descending Washington Center
Sat 07:35:27 PM 39.2414 -76.1250 41° Northeast 572 658 27,200 -1,050 Descending Washington Center
Sat 07:36:27 PM 39.3525 -75.9969 42° Northeast 551 634 26,900 -650 Descending Washington Center
Sat 07:37:27 PM 39.4611 -75.8683 42° Northeast 536 617 25,900 -1,750 Descending Washington Center
Sat 07:38:27 PM 39.5675 -75.7422 42° Northeast 526 605 23,400 -2,350 Descending Washington Center
Sat 07:39:27 PM 39.6697 -75.6186 43° Northeast 513 590 21,200 -2,150 Descending Washington Center
Sat 07:40:27 PM 39.7678 -75.5025 42° Northeast 491 565 19,100 -2,050 Descending Washington Center
Sat 07:41:27 PM 39.8614 -75.3914 42° Northeast 448 516 17,100 -2,050 Descending Washington Center
Sat 07:42:27 PM 39.9589 -75.2719 43° Northeast 448 516 15,000 -2,050 Descending Washington Center
Sat 07:43:27 PM 40.0419 -75.1686 44° Northeast 435 501 13,000 -1,900 Descending Washington Center
Sat 07:44:27 PM 40.1250 -75.0678 43° Northeast 416 479 11,200 -1,483 Descending Washington Center
Sat 07:44:56 PM 40.1667 -75.0167 43° Northeast 374 430 10,800 -867 Descending New York TRACON
Sat 07:45:50 PM 40.2167 -74.9500 46° Northeast 327 376 10,000 -1,300 Descending New York TRACON
Sat 07:46:56 PM 40.2833 -74.8667 44° Northeast 311 358 8,200 -952 Descending New York TRACON
Sat 07:47:56 PM 40.3500 -74.7833 44° Northeast 277 319 8,000 -421 Descending New York TRACON
Sat 07:48:50 PM 40.4000 -74.7167 45° Northeast 283 326 7,400 -737 Descending New York TRACON
Sat 07:49:50 PM 40.4500 -74.6667 37° Northeast 270 311 6,600 -667 Descending New York TRACON
Sat 07:50:56 PM 40.5333 -74.6333 17° North 262 302 6,000 -286 Descending New York TRACON
Sat 07:51:56 PM 40.6000 -74.6167 11° North 260 299 6,000  Level New York TRACON
Sat 07:52:56 PM 40.6667 -74.6000 11° North 261 300 6,000 -53 Level New York TRACON
Sat 07:53:50 PM 40.7333 -74.5667 21° North 273 314 5,900 -450 Descending New York TRACON
Sat 07:54:56 PM 40.8000 -74.4833 43° Northeast 268 308 5,100 -429 Descending New York TRACON
Sat 07:55:56 PM 40.8500 -74.4333 37° Northeast 274 315 5,000 -50 Descending New York TRACON
Sat 07:56:56 PM 40.8833 -74.3500 62° Northeast 273 314 5,000 -300 Level New York TRACON
Sat 07:57:56 PM 40.9167 -74.2500 66° East 273 314 4,400 -526 Descending New York TRACON
Sat 07:58:50 PM 40.9000 -74.1833 108° East 249 287 4,000 -421 Descending New York TRACON
Sat 07:59:50 PM 40.8667 -74.1167 123° Southeast 202 232 3,600 -700 Descending New York TRACON
Sat 08:00:50 PM 40.8333 -74.0833 143° Southeast 181 208 2,600 -1,000 Descending New York TRACON

Login

Don't have an account? Register now (free) for customized features, flight alerts, and more!